F/V Jeremi Simon — FHAF — position and weather

sailwx.info

Track history (hours):
 
Tides and Currents Weather Stations Pressure Air Temp Water Temp Dewpoint Dewpoint Depression Visibility Wind Speed Wind Dir Waves Ship Positions

F/V Jeremi Simon

Last reported at 2016-Jun-26 20:06 UTC. Time now 2016-Jun-28 11:42 UTC.
Position N 47°14' W 003°31'.

Length 20 m.

Type: Other ship. MMSI: 227415000.

Date/timePositionNaut miles runAvg speedWind from/ knotsBaromVisibWave heightAir tempDewpointWater temp
2016-Jun-26 20:06N 47°14' W 003°31'5 9.4
2016-Jun-26 19:33N 47°15' W 003°23'10 9.8
2016-Jun-26 18:33N 47°15' W 003°09'9 8.9
2016-Jun-26 17:33N 47°16' W 002°56'9 9.2
2016-Jun-26 16:33N 47°18' W 002°42'8 8.3
2016-Jun-26 15:33N 47°21' W 002°31'0 0.0
2016-Jun-26 14:33N 47°21' W 002°31'0 0.0
2016-Jun-26 13:33N 47°21' W 002°31'0 0.0
2016-Jun-26 12:33N 47°21' W 002°31'0 0.0
2016-Jun-26 11:33N 47°21' W 002°31'0 0.0
2016-Jun-26 10:33N 47°21' W 002°31'6 5.9
2016-Jun-26 09:33N 47°19' W 002°39'1110.8
2016-Jun-26 08:33N 47°17' W 002°55'1110.6
2016-Jun-26 07:33N 47°14' W 003°10'1110.6
2016-Jun-26 06:33N 47°11' W 003°25'38 1.1
2016-Jun-24 21:20N 46°48' W 002°41'18 9.8
2016-Jun-24 19:27N 46°44' W 002°15'8 9.4
2016-Jun-24 18:33N 46°42' W 002°03'4 4.3
2016-Jun-24 17:31N 46°42' W 001°57'0 0.0
2016-Jun-24 07:33N 46°42' W 001°57'0 0.0
2016-Jun-23 07:30N 46°42' W 001°57'0 0.0
2016-Jun-23 05:33N 46°42' W 001°57'8 7.7
2016-Jun-23 04:33N 46°43' W 002°08'1110.5
2016-Jun-23 03:34N 46°49' W 002°21'1110.0
2016-Jun-23 02:28N 46°57' W 002°30'8 8.9
2016-Jun-23 01:33N 47°05' W 002°32'9 9.5
2016-Jun-23 00:34N 47°15' W 002°34'6 6.4
2016-Jun-22 23:33N 47°21' W 002°31'0 0.0
2016-Jun-22 22:33N 47°21' W 002°31'5 5.1
2016-Jun-22 21:33N 47°17' W 002°36'9 9.5
2016-Jun-22 20:33N 47°10' W 002°46'10 9.6
2016-Jun-22 19:33N 47°04' W 002°56'10 9.8
2016-Jun-22 18:33N 46°57' W 003°07'22 3.4
2016-Jun-22 12:15N 46°42' W 003°29'15 3.7
2016-Jun-22 08:12N 46°53' W 003°14'710.1
2016-Jun-22 07:30N 46°58' W 003°06'910.0
2016-Jun-22 06:33N 47°04' W 002°56'1010.2
2016-Jun-22 05:33N 47°11' W 002°45'10 9.9
2016-Jun-22 04:33N 47°18' W 002°35'4 3.7
2016-Jun-22 03:27N 47°21' W 002°31'0 0.0
2016-Jun-22 02:33N 47°21' W 002°31'0 0.0
2016-Jun-22 01:32N 47°21' W 002°31'1010.3
2016-Jun-22 00:33N 47°13' W 002°40'1010.3
2016-Jun-21 23:33N 47°06' W 002°52'1010.0
2016-Jun-21 22:33N 46°60' W 003°03'16 0.8
2016-Jun-21 03:18N 46°47' W 003°18'1 1.3
2016-Jun-21 02:29N 46°47' W 003°19'3 1.3
2016-Jun-21 00:21N 46°46' W 003°23'1 1.1
2016-Jun-20 23:12N 46°45' W 003°24'1 0.7
2016-Jun-20 22:28N 46°45' W 003°25'1 0.4
2016-Jun-20 21:11N 46°45' W 003°25'0 0.2
2016-Jun-20 20:27N 46°44' W 003°25'15 1.7
2016-Jun-20 11:21N 46°56' W 003°10'6 8.0
2016-Jun-20 10:33N 46°60' W 003°03'8 8.0
2016-Jun-20 09:33N 47°05' W 002°54'9 8.7
2016-Jun-20 08:33N 47°11' W 002°45'10 9.6
2016-Jun-20 07:34N 47°18' W 002°35'4 4.2
2016-Jun-20 06:33N 47°21' W 002°31'0 0.0
2016-Jun-20 05:33N 47°21' W 002°31'0 0.0
2016-Jun-20 04:33N 47°21' W 002°31'0 0.0
2016-Jun-20 03:33N 47°21' W 002°31'5 4.8
2016-Jun-20 02:33N 47°17' W 002°35'1110.7
2016-Jun-20 01:33N 47°09' W 002°45'1110.9
2016-Jun-20 00:33N 47°01' W 002°56'1210.8
2016-Jun-19 23:27N 46°51' W 003°07'1010.3
2016-Jun-19 22:30N 46°44' W 003°16'1110.4
2016-Jun-19 21:29N 46°36' W 003°26'49 1.9
2016-Jun-18 19:11N 46°39' W 002°14'610.1
2016-Jun-18 18:33N 46°40' W 002°05'6 5.9
2016-Jun-18 17:32N 46°42' W 001°57'0 0.0
2016-Jun-17 09:27N 46°42' W 001°57'1 1.6
2016-Jun-17 08:33N 46°41' W 001°58'1 0.8
2016-Jun-17 07:33N 46°41' W 001°59'8 6.7
2016-Jun-17 06:26N 46°43' W 002°10'20 9.4
2016-Jun-17 04:18N 46°58' W 002°30'810.2
2016-Jun-17 03:33N 47°05' W 002°32'1010.1
2016-Jun-17 02:33N 47°15' W 002°35'6 6.2
2016-Jun-17 01:33N 47°21' W 002°31'0 0.0
2016-Jun-17 00:33N 47°21' W 002°31'0 0.0
2016-Jun-16 23:33N 47°21' W 002°31'7 7.4
2016-Jun-16 22:33N 47°15' W 002°37'1110.5
2016-Jun-16 21:33N 47°07' W 002°48'1110.5
2016-Jun-16 20:33N 46°59' W 002°58'  
Track history (hours):
 
Tides and Currents Weather Stations Pressure Air Temp Water Temp Dewpoint Dewpoint Depression Visibility Wind Speed Wind Dir Waves Ship Positions

F/V Jeremi Simon

Last reported at 2016-Jun-26 20:06 UTC. Time now 2016-Jun-28 11:42 UTC.
Position N 47°14' W 003°31'.

Length 20 m.

Type: Other ship. MMSI: 227415000.

Date/timePositionNaut miles runAvg speedWind from/ knotsBaromVisibWave heightAir tempDewpointWater temp
2016-Jun-26 20:06N 47°14' W 003°31'5 9.4
2016-Jun-26 19:33N 47°15' W 003°23'10 9.8
2016-Jun-26 18:33N 47°15' W 003°09'9 8.9
2016-Jun-26 17:33N 47°16' W 002°56'9 9.2
2016-Jun-26 16:33N 47°18' W 002°42'8 8.3
2016-Jun-26 15:33N 47°21' W 002°31'0 0.0
2016-Jun-26 14:33N 47°21' W 002°31'0 0.0
2016-Jun-26 13:33N 47°21' W 002°31'0 0.0
2016-Jun-26 12:33N 47°21' W 002°31'0 0.0
2016-Jun-26 11:33N 47°21' W 002°31'0 0.0
2016-Jun-26 10:33N 47°21' W 002°31'6 5.9
2016-Jun-26 09:33N 47°19' W 002°39'1110.8
2016-Jun-26 08:33N 47°17' W 002°55'1110.6
2016-Jun-26 07:33N 47°14' W 003°10'1110.6
2016-Jun-26 06:33N 47°11' W 003°25'38 1.1
2016-Jun-24 21:20N 46°48' W 002°41'18 9.8
2016-Jun-24 19:27N 46°44' W 002°15'8 9.4
2016-Jun-24 18:33N 46°42' W 002°03'4 4.3
2016-Jun-24 17:31N 46°42' W 001°57'0 0.0
2016-Jun-24 07:33N 46°42' W 001°57'0 0.0
2016-Jun-23 07:30N 46°42' W 001°57'0 0.0
2016-Jun-23 05:33N 46°42' W 001°57'8 7.7
2016-Jun-23 04:33N 46°43' W 002°08'1110.5
2016-Jun-23 03:34N 46°49' W 002°21'1110.0
2016-Jun-23 02:28N 46°57' W 002°30'8 8.9
2016-Jun-23 01:33N 47°05' W 002°32'9 9.5
2016-Jun-23 00:34N 47°15' W 002°34'6 6.4
2016-Jun-22 23:33N 47°21' W 002°31'0 0.0
2016-Jun-22 22:33N 47°21' W 002°31'5 5.1
2016-Jun-22 21:33N 47°17' W 002°36'9 9.5
2016-Jun-22 20:33N 47°10' W 002°46'10 9.6
2016-Jun-22 19:33N 47°04' W 002°56'10 9.8
2016-Jun-22 18:33N 46°57' W 003°07'22 3.4
2016-Jun-22 12:15N 46°42' W 003°29'15 3.7
2016-Jun-22 08:12N 46°53' W 003°14'710.1
2016-Jun-22 07:30N 46°58' W 003°06'910.0
2016-Jun-22 06:33N 47°04' W 002°56'1010.2
2016-Jun-22 05:33N 47°11' W 002°45'10 9.9
2016-Jun-22 04:33N 47°18' W 002°35'4 3.7
2016-Jun-22 03:27N 47°21' W 002°31'0 0.0
2016-Jun-22 02:33N 47°21' W 002°31'0 0.0
2016-Jun-22 01:32N 47°21' W 002°31'1010.3
2016-Jun-22 00:33N 47°13' W 002°40'1010.3
2016-Jun-21 23:33N 47°06' W 002°52'1010.0
2016-Jun-21 22:33N 46°60' W 003°03'16 0.8
2016-Jun-21 03:18N 46°47' W 003°18'1 1.3
2016-Jun-21 02:29N 46°47' W 003°19'3 1.3
2016-Jun-21 00:21N 46°46' W 003°23'1 1.1
2016-Jun-20 23:12N 46°45' W 003°24'1 0.7
2016-Jun-20 22:28N 46°45' W 003°25'1 0.4
2016-Jun-20 21:11N 46°45' W 003°25'0 0.2
2016-Jun-20 20:27N 46°44' W 003°25'15 1.7
2016-Jun-20 11:21N 46°56' W 003°10'6 8.0
2016-Jun-20 10:33N 46°60' W 003°03'8 8.0
2016-Jun-20 09:33N 47°05' W 002°54'9 8.7
2016-Jun-20 08:33N 47°11' W 002°45'10 9.6
2016-Jun-20 07:34N 47°18' W 002°35'4 4.2
2016-Jun-20 06:33N 47°21' W 002°31'0 0.0
2016-Jun-20 05:33N 47°21' W 002°31'0 0.0
2016-Jun-20 04:33N 47°21' W 002°31'0 0.0
2016-Jun-20 03:33N 47°21' W 002°31'5 4.8
2016-Jun-20 02:33N 47°17' W 002°35'1110.7
2016-Jun-20 01:33N 47°09' W 002°45'1110.9
2016-Jun-20 00:33N 47°01' W 002°56'1210.8
2016-Jun-19 23:27N 46°51' W 003°07'1010.3
2016-Jun-19 22:30N 46°44' W 003°16'1110.4
2016-Jun-19 21:29N 46°36' W 003°26'49 1.9
2016-Jun-18 19:11N 46°39' W 002°14'610.1
2016-Jun-18 18:33N 46°40' W 002°05'6 5.9
2016-Jun-18 17:32N 46°42' W 001°57'0 0.0
2016-Jun-17 09:27N 46°42' W 001°57'1 1.6
2016-Jun-17 08:33N 46°41' W 001°58'1 0.8
2016-Jun-17 07:33N 46°41' W 001°59'8 6.7
2016-Jun-17 06:26N 46°43' W 002°10'20 9.4
2016-Jun-17 04:18N 46°58' W 002°30'810.2
2016-Jun-17 03:33N 47°05' W 002°32'1010.1
2016-Jun-17 02:33N 47°15' W 002°35'6 6.2
2016-Jun-17 01:33N 47°21' W 002°31'0 0.0
2016-Jun-17 00:33N 47°21' W 002°31'0 0.0
2016-Jun-16 23:33N 47°21' W 002°31'7 7.4
2016-Jun-16 22:33N 47°15' W 002°37'1110.5
2016-Jun-16 21:33N 47°07' W 002°48'1110.5
2016-Jun-16 20:33N 46°59' W 002°58'  

Dump ship's entire track history